Time;durP1;ratioP1;P1;durP2;ratioP2;P2;SDS_P1;SDS_P2;PMS_P1;PMS_P2;Temp;Humidity;BMP_temperature;BMP_pressure;BME280_temperature;BME280_humidity;BME280_pressure;Samples;Min_cycle;Max_cycle;Signal;HPM_P1;HPM_P2
2021/06/02 00:02:03;;;;;;;6.53;2.90;;;;;;;16.20;48.17;95446.22;5019393;28;20195;-86
2021/06/02 00:04:30;;;;;;;4.95;2.97;;;;;;;16.11;48.76;95444.91;5020895;28;20211;-86
2021/06/02 00:07:00;;;;;;;6.07;2.92;;;;;;;16.01;49.30;95442.78;5020467;28;20348;-86
2021/06/02 00:09:27;;;;;;;3.03;2.53;;;;;;;15.98;48.99;95451.00;5019939;28;20206;-86
2021/06/02 00:11:56;;;;;;;2.97;2.70;;;;;;;15.94;49.41;95447.28;5009423;28;20215;-88
2021/06/02 00:14:24;;;;;;;3.97;2.65;;;;;;;15.79;50.25;95444.19;5019371;28;20206;-88
2021/06/02 00:16:50;;;;;;;3.03;2.63;;;;;;;15.74;50.33;95446.63;5014185;28;20202;-85
2021/06/02 00:19:16;;;;;;;3.80;2.70;;;;;;;15.68;50.60;95442.28;5020175;28;20203;-87
2021/06/02 00:21:43;;;;;;;4.93;2.93;;;;;;;15.65;50.87;95445.28;5020503;28;20205;-85
2021/06/02 00:24:10;;;;;;;3.07;2.87;;;;;;;15.64;51.09;95443.69;5019975;28;20203;-86
2021/06/02 00:26:37;;;;;;;3.13;2.83;;;;;;;15.60;51.40;95440.72;5020119;28;20222;-88
2021/06/02 00:29:05;;;;;;;3.17;2.40;;;;;;;15.55;51.42;95437.97;5019510;28;20203;-86
2021/06/02 00:31:32;;;;;;;3.13;2.83;;;;;;;15.51;51.11;95434.19;5019806;28;20229;-88
2021/06/02 00:34:00;;;;;;;3.10;2.80;;;;;;;15.56;50.72;95439.56;5018974;28;20226;-89
2021/06/02 00:36:27;;;;;;;3.23;2.83;;;;;;;15.47;51.31;95430.41;5019366;28;20246;-87
2021/06/02 00:38:53;;;;;;;3.10;2.90;;;;;;;15.56;51.14;95431.00;5019463;28;20229;-88
2021/06/02 00:41:21;;;;;;;4.97;3.00;;;;;;;15.49;51.44;95433.59;5019381;28;20244;-87
2021/06/02 00:43:47;;;;;;;3.20;2.87;;;;;;;15.30;52.01;95437.13;5018489;28;20191;-88
2021/06/02 00:46:14;;;;;;;3.27;2.80;;;;;;;15.18;52.21;95440.38;5015069;28;20218;-87
2021/06/02 00:48:42;;;;;;;3.30;3.00;;;;;;;15.15;52.05;95443.41;5016040;28;20206;-87
2021/06/02 00:51:09;;;;;;;4.87;2.87;;;;;;;15.10;52.35;95432.84;5010100;28;20195;-89
2021/06/02 00:53:36;;;;;;;3.57;2.77;;;;;;;15.15;52.67;95427.84;5015843;28;21002;-87
2021/06/02 00:56:04;;;;;;;3.67;2.83;;;;;;;15.12;53.01;95430.03;5018756;28;20253;-86
2021/06/02 00:58:38;;;;;;;3.43;2.80;;;;;;;14.91;53.68;95430.34;5014664;28;20789;-88
2021/06/02 01:01:06;;;;;;;3.50;3.20;;;;;;;14.90;53.69;95423.56;5011217;28;20206;-88
2021/06/02 01:03:35;;;;;;;3.10;2.80;;;;;;;15.02;52.78;95424.50;5013297;28;20264;-87
2021/06/02 01:06:02;;;;;;;3.30;2.67;;;;;;;15.04;53.39;95431.06;5006972;28;20227;-87
2021/06/02 01:08:30;;;;;;;3.40;3.10;;;;;;;15.06;52.96;95428.28;5018684;28;20286;-89
2021/06/02 01:10:57;;;;;;;3.17;2.87;;;;;;;15.19;52.13;95428.22;5017529;28;20195;-88
2021/06/02 01:13:26;;;;;;;3.43;2.77;;;;;;;15.14;52.12;95420.25;5017634;28;20962;-88
2021/06/02 01:15:53;;;;;;;4.93;3.73;;;;;;;15.14;52.22;95425.44;5016901;28;20404;-87
2021/06/02 01:18:19;;;;;;;5.00;4.07;;;;;;;15.11;52.63;95420.66;5017707;28;20208;-87
2021/06/02 01:20:47;;;;;;;4.67;3.50;;;;;;;14.99;53.36;95419.75;5009213;28;20203;-87
2021/06/02 01:23:14;;;;;;;3.87;3.47;;;;;;;14.92;54.00;95419.78;5004960;28;20874;-87
2021/06/02 01:25:42;;;;;;;3.60;3.30;;;;;;;14.91;53.59;95423.38;5007760;28;20228;-86
2021/06/02 01:28:08;;;;;;;4.17;3.27;;;;;;;14.94;53.29;95428.16;4994637;28;20203;-87
2021/06/02 01:30:36;;;;;;;4.30;3.40;;;;;;;15.07;52.68;95422.09;5010702;28;20615;-86
2021/06/02 01:33:21;;;;;;;4.27;3.87;;;;;;;15.12;53.07;95422.25;5010437;28;20284;-87
2021/06/02 01:36:04;;;;;;;5.23;4.70;;;;;;;15.17;53.43;95422.44;5011904;28;20215;-87
2021/06/02 01:38:53;;;;;;;6.90;4.70;;;;;;;15.09;53.40;95423.47;5012884;28;20198;-87
2021/06/02 01:41:24;;;;;;;5.77;5.00;;;;;;;15.08;53.65;95424.47;5012584;28;20202;-86
2021/06/02 01:44:25;;;;;;;6.33;5.03;;;;;;;15.01;54.02;95418.53;5013429;28;20195;-87
2021/06/02 01:47:04;;;;;;;5.50;5.00;;;;;;;15.03;53.85;95421.69;5014098;28;20729;-87
2021/06/02 01:49:55;;;;;;;4.97;4.30;;;;;;;15.05;54.17;95411.91;5013417;28;20228;-87
2021/06/02 01:52:54;;;;;;;6.70;4.80;;;;;;;14.96;54.07;95412.38;5012968;28;20222;-87
2021/06/02 01:55:39;;;;;;;5.03;4.33;;;;;;;14.94;53.67;95409.19;5013165;28;20219;-87
2021/06/02 01:58:42;;;;;;;5.10;4.13;;;;;;;14.82;54.39;95409.03;5014690;28;20203;-86
2021/06/02 02:01:27;;;;;;;8.10;4.50;;;;;;;14.73;54.75;95423.25;5014507;28;20221;-89
2021/06/02 02:04:29;;;;;;;5.43;4.17;;;;;;;14.62;55.00;95418.72;5015368;28;20608;-87
2021/06/02 02:07:23;;;;;;;4.20;3.80;;;;;;;14.65;55.06;95410.50;5015489;28;20233;-88
2021/06/02 02:10:18;;;;;;;7.43;4.33;;;;;;;14.75;54.73;95409.09;5015896;28;20209;-87
2021/06/02 02:12:59;;;;;;;4.67;3.90;;;;;;;14.71;54.88;95401.94;5014302;28;20238;-87
2021/06/02 02:15:33;;;;;;;3.90;3.50;;;;;;;14.55;55.12;95410.16;5013297;28;20226;-86
2021/06/02 02:18:20;;;;;;;6.27;3.70;;;;;;;14.53;55.08;95418.16;5015003;28;20253;-87
2021/06/02 02:20:51;;;;;;;5.57;3.63;;;;;;;14.46;55.27;95418.16;5015577;28;20203;-87
2021/06/02 02:23:26;;;;;;;4.43;4.03;;;;;;;14.43;56.00;95421.16;5017238;28;20194;-87
2021/06/02 02:25:57;;;;;;;4.20;3.80;;;;;;;14.43;55.84;95415.97;5017118;28;20218;-85
2021/06/02 02:28:53;;;;;;;3.97;3.50;;;;;;;14.47;55.74;95434.50;5018587;28;20206;-86
2021/06/02 02:31:46;;;;;;;4.40;3.33;;;;;;;14.46;55.93;95423.34;4995997;28;20204;-86
2021/06/02 02:34:25;;;;;;;4.10;3.50;;;;;;;14.45;55.85;95434.69;4999823;28;20236;-86
2021/06/02 02:36:59;;;;;;;4.03;3.60;;;;;;;14.38;55.62;95428.72;5022990;28;20205;-86
2021/06/02 02:39:30;;;;;;;3.73;3.33;;;;;;;14.34;55.40;95432.72;5040002;28;20202;-87
2021/06/02 02:42:07;;;;;;;3.73;3.37;;;;;;;14.19;56.70;95426.97;5037314;28;20206;-87
2021/06/02 02:44:53;;;;;;;3.80;3.50;;;;;;;14.08;56.35;95438.75;5020975;28;20203;-86
2021/06/02 02:47:26;;;;;;;4.57;3.40;;;;;;;14.07;57.02;95433.75;5020845;28;20203;-87
2021/06/02 02:50:01;;;;;;;4.07;3.67;;;;;;;14.04;56.76;95434.97;5017762;28;20206;-87
2021/06/02 02:52:39;;;;;;;4.80;3.60;;;;;;;14.00;57.01;95422.63;5019647;28;20242;-87
2021/06/02 02:55:11;;;;;;;4.07;3.40;;;;;;;14.06;56.60;95425.19;5019663;28;20218;-89
2021/06/02 02:57:44;;;;;;;4.23;3.30;;;;;;;14.10;56.31;95421.22;5020004;28;20191;-86
2021/06/02 03:00:14;;;;;;;5.23;3.20;;;;;;;14.11;56.66;95427.97;5019931;28;20199;-87
2021/06/02 03:02:45;;;;;;;3.50;3.20;;;;;;;14.28;55.55;95432.72;5020246;28;20195;-88
2021/06/02 03:05:15;;;;;;;5.13;3.20;;;;;;;14.19;55.98;95426.97;5019411;28;20222;-87
2021/06/02 03:07:47;;;;;;;3.40;3.10;;;;;;;14.23;56.21;95433.34;5020405;28;20209;-86
2021/06/02 03:10:15;;;;;;;4.57;3.37;;;;;;;14.25;56.08;95439.09;5020824;28;20195;-86
2021/06/02 03:12:54;;;;;;;3.90;3.50;;;;;;;14.10;56.94;95441.91;5019574;28;20636;-89
2021/06/02 03:15:38;;;;;;;4.80;3.23;;;;;;;14.18;56.43;95440.94;5020419;28;20333;-86
2021/06/02 03:18:15;;;;;;;4.83;3.90;;;;;;;14.13;56.64;95438.94;5019774;28;20199;-87
2021/06/02 03:20:46;;;;;;;5.17;4.23;;;;;;;14.02;56.36;95446.53;5020178;28;20682;-88
2021/06/02 03:23:36;;;;;;;6.83;5.23;;;;;;;14.00;56.50;95446.72;5019186;28;20198;-87
2021/06/02 03:26:07;;;;;;;6.40;5.80;;;;;;;14.04;56.13;95453.09;5012637;28;20223;-88
2021/06/02 03:28:53;;;;;;;8.33;7.17;;;;;;;14.05;56.07;95454.66;5005780;28;20226;-87
2021/06/02 03:31:29;;;;;;;8.83;7.53;;;;;;;14.04;55.86;95453.09;5018716;28;20203;-87
2021/06/02 03:34:22;;;;;;;8.07;6.87;;;;;;;13.90;56.90;95456.69;5019557;28;20227;-87
2021/06/02 03:37:05;;;;;;;5.67;4.80;;;;;;;13.89;56.51;95455.09;5017464;28;20213;-88
2021/06/02 03:39:47;;;;;;;4.50;4.10;;;;;;;13.91;57.01;95458.28;5018772;28;20206;-87
2021/06/02 03:42:23;;;;;;;3.77;3.47;;;;;;;13.95;56.38;95463.84;5019507;28;20642;-87
2021/06/02 03:45:03;;;;;;;4.57;3.67;;;;;;;14.00;56.18;95461.47;5019352;28;20221;-89
2021/06/02 03:47:42;;;;;;;4.80;3.80;;;;;;;14.04;56.09;95460.88;5019806;28;20203;-87
2021/06/02 03:50:14;;;;;;;5.83;3.50;;;;;;;14.11;55.70;95471.19;5020594;28;20249;-87
2021/06/02 03:53:13;;;;;;;5.53;4.00;;;;;;;14.11;55.65;95466.03;5018883;28;20215;-89
2021/06/02 03:55:44;;;;;;;4.50;3.80;;;;;;;13.99;56.27;95467.63;5017171;28;20273;-88
2021/06/02 03:58:23;;;;;;;4.83;3.43;;;;;;;13.96;56.72;95471.41;5016664;28;20242;-87
2021/06/02 04:01:00;;;;;;;5.57;4.20;;;;;;;13.95;57.53;95475.00;5016980;28;20199;-88
2021/06/02 04:03:38;;;;;;;5.93;3.80;;;;;;;13.95;57.65;95484.56;4998671;28;20222;-87
2021/06/02 04:06:17;;;;;;;5.43;3.63;;;;;;;13.99;56.73;95483.97;5016407;28;20728;-85
2021/06/02 04:08:50;;;;;;;5.67;3.70;;;;;;;14.06;56.93;95479.56;5016969;28;20198;-86
2021/06/02 04:11:19;;;;;;;9.53;4.10;;;;;;;14.20;56.71;95485.53;5016696;28;20273;-87
2021/06/02 04:13:57;;;;;;;5.83;4.27;;;;;;;14.47;56.80;95486.31;5014934;28;20225;-88
2021/06/02 04:16:24;;;;;;;4.73;4.00;;;;;;;14.61;55.26;95489.69;5015054;28;20222;-88
2021/06/02 04:18:54;;;;;;;5.13;4.13;;;;;;;14.73;55.43;95483.66;5016764;28;20662;-88
2021/06/02 04:21:23;;;;;;;4.90;3.60;;;;;;;14.96;55.74;95487.56;5014039;28;20195;-88
2021/06/02 04:23:49;;;;;;;7.43;3.80;;;;;;;15.19;54.70;95480.09;5015357;28;20205;-88
2021/06/02 04:26:16;;;;;;;5.03;4.03;;;;;;;15.34;54.61;95485.78;5014543;28;20223;-89
2021/06/02 04:28:42;;;;;;;5.33;3.73;;;;;;;15.48;54.11;95487.28;5013796;28;20195;-88
2021/06/02 04:31:10;;;;;;;6.33;4.00;;;;;;;15.69;53.60;95486.19;5013579;28;20273;-88
2021/06/02 04:33:37;;;;;;;6.37;3.60;;;;;;;15.84;53.27;95491.88;5014494;28;20234;-88
2021/06/02 04:36:07;;;;;;;5.83;3.93;;;;;;;15.99;52.98;95488.94;5014702;28;20261;-88
2021/06/02 04:38:34;;;;;;;5.55;3.97;;;;;;;16.13;53.50;95505.25;5014029;28;20203;-88
2021/06/02 04:41:02;;;;;;;7.50;5.00;;;;;;;16.28;52.99;95490.13;5011024;28;20198;-88
2021/06/02 04:43:30;;;;;;;9.40;4.43;;;;;;;16.21;52.83;95502.34;5017023;28;20203;-88
2021/06/02 04:45:57;;;;;;;4.40;4.00;;;;;;;16.07;53.79;95504.28;5012154;28;20762;-87
2021/06/02 04:48:24;;;;;;;9.52;8.50;;;;;;;16.10;53.29;95503.06;5013901;28;20268;-88
2021/06/02 04:51:00;;;;;;;6.97;6.28;;;;;;;16.25;53.37;95503.53;5016470;28;20201;-87
2021/06/02 04:53:54;;;;;;;5.40;4.47;;;;;;;16.40;52.53;95498.00;5016865;28;20226;-87
2021/06/02 04:56:43;;;;;;;5.25;4.55;;;;;;;16.08;53.11;95505.88;5017851;28;20246;-87
2021/06/02 04:59:43;;;;;;;4.80;3.88;;;;;;;15.96;53.04;95504.97;5015983;28;20217;-86
2021/06/02 05:02:31;;;;;;;5.88;4.40;;;;;;;15.95;53.07;95516.38;5016049;28;20208;-87
2021/06/02 05:05:23;;;;;;;4.00;3.70;;;;;;;15.93;53.22;95515.00;5017910;28;20219;-87
2021/06/02 05:08:22;;;;;;;5.18;4.68;;;;;;;15.93;53.40;95513.19;5017694;28;20202;-88
2021/06/02 05:11:37;;;;;;;4.80;3.80;;;;;;;15.94;53.19;95514.78;5019749;28;20202;-88
2021/06/02 05:14:36;;;;;;;4.80;4.30;;;;;;;16.00;52.25;95519.09;5004168;28;20249;-89
2021/06/02 05:17:56;;;;;;;6.88;4.20;;;;;;;16.07;52.32;95519.88;5010503;28;20282;-86
2021/06/02 05:24:15;;;;;;;5.35;4.50;;;;;;;16.08;51.84;95525.84;5011854;28;20202;-88
2021/06/02 05:27:26;;;;;;;6.55;4.72;;;;;;;16.10;51.59;95516.84;5019516;28;20218;-89
2021/06/02 05:30:23;;;;;;;7.95;4.70;;;;;;;16.22;51.01;95525.53;5019197;28;20207;-87
2021/06/02 05:33:23;;;;;;;4.63;4.23;;;;;;;16.35;50.16;95516.84;5019573;28;20230;-87
2021/06/02 05:36:15;;;;;;;4.55;4.13;;;;;;;16.52;49.80;95524.88;5007165;28;20210;-89
2021/06/02 05:39:05;;;;;;;4.63;3.72;;;;;;;16.46;50.58;95534.31;5019011;28;20211;-87
2021/06/02 05:41:43;;;;;;;5.80;4.18;;;;;;;16.57;49.33;95520.59;5015077;28;20200;-88
2021/06/02 05:45:07;;;;;;;4.43;3.63;;;;;;;16.65;48.31;95521.38;5009965;28;20205;-88
2021/06/02 05:48:14;;;;;;;5.15;3.63;;;;;;;16.75;48.09;95530.25;5019560;28;20234;-88
2021/06/02 05:51:12;;;;;;;4.97;3.10;;;;;;;16.82;47.57;95525.78;5019498;28;20258;-87
2021/06/02 05:54:18;;;;;;;5.63;3.20;;;;;;;16.86;47.16;95523.56;5019277;28;20206;-88
2021/06/02 05:57:17;;;;;;;6.75;3.67;;;;;;;16.88;46.87;95524.16;5017969;28;20223;-88
2021/06/02 06:00:04;;;;;;;4.70;3.33;;;;;;;16.97;46.97;95520.22;4980019;28;20194;-86
2021/06/02 06:02:57;;;;;;;9.30;2.88;;;;;;;17.07;46.81;95523.13;5017851;28;20207;-88
2021/06/02 06:05:36;;;;;;;6.60;3.55;;;;;;;17.13;46.50;95524.03;5020281;28;20349;-87
2021/06/02 06:08:38;;;;;;;4.22;3.03;;;;;;;17.16;46.26;95518.41;5019247;28;20253;-87
2021/06/02 06:11:43;;;;;;;4.40;3.15;;;;;;;17.28;46.61;95524.47;5019028;28;20221;-88
2021/06/02 06:14:31;;;;;;;4.07;3.15;;;;;;;17.37;46.42;95527.56;5019051;28;20267;-88
2021/06/02 06:17:21;;;;;;;4.38;3.03;;;;;;;17.32;45.81;95525.59;5016698;28;20658;-87
2021/06/02 06:20:26;;;;;;;3.25;2.50;;;;;;;17.45;46.02;95530.66;5020315;28;20245;-89
2021/06/02 06:23:11;;;;;;;3.70;3.40;;;;;;;17.35;46.66;95527.78;5019149;28;20252;-87
2021/06/02 06:25:44;;;;;;;5.57;2.85;;;;;;;17.41;45.98;95529.50;5013723;28;20301;-87
2021/06/02 06:28:15;;;;;;;6.40;3.17;;;;;;;17.48;45.68;95526.81;5018737;28;20199;-88
2021/06/02 06:30:43;;;;;;;4.07;3.00;;;;;;;17.54;45.69;95531.91;5018777;28;20206;-87
2021/06/02 06:33:10;;;;;;;4.97;3.05;;;;;;;17.54;45.31;95529.31;5014388;28;20249;-87
2021/06/02 06:35:39;;;;;;;7.18;2.90;;;;;;;17.61;45.47;95539.66;5015522;28;20233;-87
2021/06/02 06:38:10;;;;;;;5.53;2.83;;;;;;;17.72;45.22;95538.13;5018100;28;20210;-87
2021/06/02 06:40:40;;;;;;;4.22;2.70;;;;;;;17.77;44.99;95536.44;5017571;28;20205;-87
2021/06/02 06:43:10;;;;;;;3.30;2.75;;;;;;;17.77;45.12;95539.06;5015178;28;20209;-88
2021/06/02 06:45:39;;;;;;;3.25;2.90;;;;;;;17.87;45.22;95541.94;5016695;28;20238;-89
2021/06/02 06:48:10;;;;;;;4.63;3.08;;;;;;;17.88;44.92;95534.91;5018843;28;20195;-89
2021/06/02 06:50:37;;;;;;;7.15;3.15;;;;;;;17.94;44.73;95542.59;5016414;28;20211;-87
2021/06/02 06:53:05;;;;;;;4.20;3.20;;;;;;;17.98;44.61;95545.56;5017899;28;20757;-88
2021/06/02 06:55:32;;;;;;;5.35;3.00;;;;;;;17.95;45.17;95549.41;5016627;28;20253;-87
2021/06/02 06:57:59;;;;;;;5.30;2.88;;;;;;;17.93;45.26;95548.84;5014920;28;20287;-89
2021/06/02 07:00:26;;;;;;;5.93;3.00;;;;;;;17.95;44.99;95552.00;5014378;28;20256;-87
2021/06/02 07:02:52;;;;;;;4.03;3.45;;;;;;;18.05;44.81;95548.88;5015689;28;20187;-87
2021/06/02 07:05:20;;;;;;;6.57;3.22;;;;;;;18.09;44.70;95552.59;5017719;28;20226;-87
2021/06/02 07:07:47;;;;;;;5.90;3.38;;;;;;;18.12;44.45;95548.75;5018613;28;20289;-87
2021/06/02 07:10:14;;;;;;;4.47;2.88;;;;;;;18.17;44.43;95562.72;5017729;28;20199;-87
2021/06/02 07:12:42;;;;;;;5.32;2.83;;;;;;;18.29;44.59;95563.50;5015250;28;20229;-88
2021/06/02 07:15:12;;;;;;;4.63;2.72;;;;;;;18.33;44.18;95565.69;5014431;28;20223;-89
2021/06/02 07:17:40;;;;;;;3.47;2.40;;;;;;;18.37;43.88;95561.59;5015131;28;20205;-88
2021/06/02 07:20:10;;;;;;;4.45;3.00;;;;;;;18.43;43.61;95558.91;5019240;28;20195;-87
2021/06/02 07:22:40;;;;;;;4.32;2.67;;;;;;;18.49;43.78;95559.78;5018330;28;20210;-88
2021/06/02 07:25:08;;;;;;;8.18;2.88;;;;;;;18.51;43.67;95555.94;5019420;28;20226;-87
2021/06/02 07:27:36;;;;;;;5.60;3.13;;;;;;;18.55;43.55;95564.13;5019031;28;20207;-88
2021/06/02 07:30:02;;;;;;;4.00;3.10;;;;;;;18.60;44.03;95565.06;5018710;28;20259;-87
2021/06/02 07:32:28;;;;;;;4.55;3.30;;;;;;;18.70;44.73;95566.28;5018119;28;20226;-89
2021/06/02 07:34:54;;;;;;;5.72;2.90;;;;;;;18.79;43.95;95568.34;5019127;28;20227;-88
2021/06/02 07:37:20;;;;;;;3.40;2.80;;;;;;;18.85;43.83;95564.03;5018908;28;20253;-87
2021/06/02 07:39:47;;;;;;;5.00;2.90;;;;;;;18.82;44.28;95569.69;5014876;28;20221;-89
2021/06/02 07:42:15;;;;;;;5.43;3.13;;;;;;;19.02;44.19;95564.13;5020436;28;20716;-88
2021/06/02 07:44:41;;;;;;;4.50;2.95;;;;;;;19.21;44.68;95562.94;5019415;28;20205;-87
2021/06/02 07:47:08;;;;;;;5.97;2.85;;;;;;;19.40;44.66;95556.53;5020994;28;20630;-87
2021/06/02 07:49:34;;;;;;;5.30;2.88;;;;;;;19.47;43.71;95564.22;5020802;28;20198;-88
2021/06/02 07:52:01;;;;;;;7.47;3.17;;;;;;;19.56;43.40;95563.66;5018038;28;20210;-87
2021/06/02 07:54:27;;;;;;;2.97;2.60;;;;;;;19.59;44.15;95560.59;5019929;28;20330;-88
2021/06/02 07:56:54;;;;;;;5.75;3.00;;;;;;;19.73;43.30;95562.91;5017686;28;20205;-87
2021/06/02 07:59:23;;;;;;;4.85;2.70;;;;;;;19.72;42.09;95562.13;5011688;28;20286;-87
2021/06/02 08:01:49;;;;;;;3.78;2.90;;;;;;;19.84;42.51;95559.44;5011735;28;20689;-87
2021/06/02 08:04:15;;;;;;;4.25;2.45;;;;;;;19.82;41.84;95558.91;5013120;28;20209;-88
2021/06/02 08:06:42;;;;;;;4.45;2.75;;;;;;;19.86;41.95;95560.81;5012361;28;20222;-87
2021/06/02 08:09:08;;;;;;;4.25;2.80;;;;;;;20.05;42.00;95565.81;5012427;28;20286;-86
2021/06/02 08:11:34;;;;;;;4.50;2.72;;;;;;;20.19;43.10;95570.53;5008561;28;20222;-87
2021/06/02 08:14:00;;;;;;;4.32;2.40;;;;;;;20.31;42.70;95568.63;4998476;28;20281;-87
2021/06/02 08:16:30;;;;;;;3.42;2.50;;;;;;;20.46;41.35;95570.72;5013489;28;20219;-88
2021/06/02 08:18:56;;;;;;;6.68;2.88;;;;;;;20.55;40.98;95566.69;5017447;28;20197;-89
2021/06/02 08:21:22;;;;;;;3.80;2.17;;;;;;;20.71;41.55;95566.91;4993767;28;20208;-87
2021/06/02 08:23:48;;;;;;;4.53;2.20;;;;;;;20.87;40.75;95566.88;5002825;28;20191;-87
2021/06/02 08:26:14;;;;;;;6.50;2.47;;;;;;;20.97;40.12;95569.59;5016890;28;20226;-87
2021/06/02 08:28:40;;;;;;;4.28;2.60;;;;;;;21.00;40.44;95573.56;5016470;28;20202;-87
2021/06/02 08:31:06;;;;;;;3.65;2.40;;;;;;;21.06;40.45;95571.81;5016099;28;20190;-85
2021/06/02 08:33:33;;;;;;;4.32;2.70;;;;;;;21.15;39.91;95576.41;5016125;28;20299;-87
2021/06/02 08:36:00;;;;;;;11.30;2.95;;;;;;;21.27;40.41;95573.69;5015547;28;20241;-88
2021/06/02 08:38:26;;;;;;;3.08;2.38;;;;;;;21.37;39.75;95574.59;5018411;28;20214;-88
2021/06/02 08:40:52;;;;;;;3.97;2.58;;;;;;;21.42;39.47;95567.84;5017061;28;20710;-87
2021/06/02 08:43:19;;;;;;;3.50;2.65;;;;;;;21.37;38.07;95568.56;5017307;28;20253;-88
2021/06/02 08:45:47;;;;;;;6.22;2.72;;;;;;;21.43;38.55;95570.22;5003347;28;20230;-88
2021/06/02 08:48:13;;;;;;;3.85;2.75;;;;;;;21.61;38.64;95569.09;5008675;28;20320;-87
2021/06/02 08:50:40;;;;;;;2.92;2.50;;;;;;;21.79;38.20;95563.53;5018853;28;20195;-88
2021/06/02 08:53:07;;;;;;;5.25;2.38;;;;;;;21.94;38.37;95571.53;5017542;28;20225;-88
2021/06/02 08:55:33;;;;;;;5.53;2.60;;;;;;;22.03;38.95;95569.28;5013181;28;20226;-88
2021/06/02 08:57:59;;;;;;;6.07;2.40;;;;;;;22.23;38.84;95572.09;5018541;28;20693;-88
2021/06/02 09:00:26;;;;;;;4.43;2.33;;;;;;;22.39;39.25;95573.00;5019794;28;20207;-86
2021/06/02 09:02:54;;;;;;;4.72;2.40;;;;;;;22.52;38.66;95567.31;5016365;28;20203;-86
2021/06/02 09:05:30;;;;;;;4.68;2.90;;;;;;;22.58;37.80;95571.56;5000434;28;20223;-88
2021/06/02 09:07:57;;;;;;;3.05;2.78;;;;;;;22.66;37.41;95572.97;5017913;28;20254;-87
2021/06/02 09:10:25;;;;;;;3.95;3.05;;;;;;;22.68;36.71;95574.28;5017967;28;20260;-88
2021/06/02 09:12:56;;;;;;;5.40;3.03;;;;;;;22.81;36.69;95570.44;5016295;28;20222;-87
2021/06/02 09:15:22;;;;;;;3.60;2.67;;;;;;;22.90;36.44;95576.78;5018260;28;20223;-88
2021/06/02 09:17:56;;;;;;;6.75;2.92;;;;;;;22.99;36.08;95577.13;5018109;28;20289;-88
2021/06/02 09:20:40;;;;;;;3.17;2.88;;;;;;;23.06;36.02;95570.59;5018225;28;20213;-86
2021/06/02 09:23:30;;;;;;;3.25;2.75;;;;;;;23.03;34.65;95570.31;5016871;28;20199;-86
2021/06/02 09:26:10;;;;;;;2.97;2.45;;;;;;;23.00;35.83;95573.44;4997626;28;20235;-85
2021/06/02 09:28:51;;;;;;;3.05;2.75;;;;;;;23.00;36.20;95582.13;5011344;28;20268;-84
2021/06/02 09:31:32;;;;;;;2.58;2.38;;;;;;;23.26;35.39;95579.63;5014181;28;20266;-86
2021/06/02 09:34:02;;;;;;;4.82;2.30;;;;;;;23.36;34.90;95584.91;5016826;28;20219;-85
2021/06/02 09:36:30;;;;;;;5.03;2.83;;;;;;;23.47;36.35;95578.66;5007818;28;20223;-86
2021/06/02 09:38:59;;;;;;;4.85;2.88;;;;;;;23.61;36.06;95579.00;5013795;28;20213;-84
2021/06/02 09:41:28;;;;;;;4.78;2.78;;;;;;;23.85;35.21;95584.59;4999669;28;20597;-86
2021/06/02 09:43:54;;;;;;;3.20;2.63;;;;;;;24.01;34.42;95575.69;5001146;28;20187;-87
2021/06/02 09:46:20;;;;;;;4.43;2.80;;;;;;;24.15;34.56;95579.38;5004984;28;20223;-88
2021/06/02 09:49:02;;;;;;;3.25;2.60;;;;;;;24.35;33.08;95574.16;5000921;28;20210;-89
2021/06/02 09:51:34;;;;;;;2.70;2.30;;;;;;;24.50;34.35;95577.84;5012672;28;20195;-88
2021/06/02 09:54:03;;;;;;;2.88;2.53;;;;;;;24.61;34.06;95582.84;5013134;28;20229;-89
2021/06/02 09:56:34;;;;;;;3.90;2.35;;;;;;;24.53;32.97;95582.56;5016566;28;20219;-88
2021/06/02 09:59:00;;;;;;;4.97;2.30;;;;;;;24.65;32.71;95589.13;5016487;28;20207;-88
2021/06/02 10:01:26;;;;;;;3.88;2.70;;;;;;;24.79;34.10;95597.31;5018446;28;20244;-85
2021/06/02 10:03:53;;;;;;;4.30;2.90;;;;;;;24.83;33.04;95587.78;5017321;28;20195;-88
2021/06/02 10:06:19;;;;;;;3.28;2.45;;;;;;;24.95;33.54;95598.91;5016698;28;20225;-87
2021/06/02 10:08:55;;;;;;;2.90;2.70;;;;;;;24.92;31.67;95596.75;5018677;28;20305;-86
2021/06/02 10:11:27;;;;;;;4.65;2.75;;;;;;;24.99;32.76;95599.94;5016447;28;20209;-88
2021/06/02 10:13:54;;;;;;;5.10;2.20;;;;;;;25.01;32.75;95591.78;5018165;28;20283;-87
2021/06/02 10:16:33;;;;;;;5.13;2.45;;;;;;;24.94;31.15;95589.41;5018146;28;20289;-86
2021/06/02 10:18:59;;;;;;;3.10;2.35;;;;;;;24.96;31.15;95597.03;5018135;28;20318;-87
2021/06/02 10:21:25;;;;;;;3.38;2.35;;;;;;;25.01;32.93;95592.56;5018164;28;20218;-88
2021/06/02 10:23:52;;;;;;;2.60;2.40;;;;;;;25.13;32.26;95585.16;5016527;28;20289;-85
2021/06/02 10:26:19;;;;;;;4.28;2.10;;;;;;;25.37;30.40;95593.25;5017183;28;20225;-84
2021/06/02 10:28:49;;;;;;;4.88;2.70;;;;;;;25.36;30.24;95583.75;5018253;28;20709;-87
2021/06/02 10:31:18;;;;;;;4.60;2.28;;;;;;;25.39;29.67;95588.50;5016946;28;20195;-87
2021/06/02 10:33:44;;;;;;;3.42;2.00;;;;;;;25.55;29.37;95591.06;5016277;28;20251;-86
2021/06/02 10:36:11;;;;;;;2.95;2.05;;;;;;;25.70;28.58;95596.28;5017935;28;20210;-85
2021/06/02 10:38:43;;;;;;;2.30;2.10;;;;;;;25.75;26.84;95589.16;5017349;28;20218;-88
2021/06/02 10:41:15;;;;;;;3.17;2.00;;;;;;;25.82;27.97;95588.84;5017367;28;20203;-87
2021/06/02 10:43:44;;;;;;;2.30;2.10;;;;;;;25.92;28.34;95590.66;5017125;28;20187;-85
2021/06/02 10:46:21;;;;;;;2.35;2.10;;;;;;;25.99;30.26;95593.75;5015938;28;20247;-85
2021/06/02 10:48:49;;;;;;;2.83;2.22;;;;;;;25.96;27.54;95600.38;5017720;28;20252;-87
2021/06/02 10:51:24;;;;;;;3.80;2.28;;;;;;;25.84;26.89;95596.47;5016755;28;20210;-85
2021/06/02 10:54:03;;;;;;;2.40;2.20;;;;;;;25.74;27.66;95594.69;5015967;28;20853;-87
2021/06/02 10:56:29;;;;;;;3.20;2.15;;;;;;;25.62;27.12;95591.53;5017614;28;20226;-87
2021/06/02 10:58:56;;;;;;;2.22;2.10;;;;;;;25.62;27.59;95596.81;5016954;28;20205;-87
2021/06/02 11:01:23;;;;;;;2.35;2.15;;;;;;;25.81;29.83;95597.81;5014161;28;20226;-86
2021/06/02 11:04:11;;;;;;;3.25;2.40;;;;;;;26.02;30.16;95595.84;5011769;28;20230;-88
2021/06/02 11:06:39;;;;;;;4.22;2.25;;;;;;;26.17;29.10;95592.34;5011771;28;20269;-88
2021/06/02 11:09:12;;;;;;;4.68;2.35;;;;;;;26.23;28.50;95592.03;5011900;28;20203;-88
2021/06/02 11:11:41;;;;;;;4.13;2.50;;;;;;;26.39;29.63;95593.50;5019767;28;20624;-88
2021/06/02 11:14:27;;;;;;;2.22;2.03;;;;;;;26.28;28.91;95597.28;5014166;28;20616;-87
2021/06/02 11:17:10;;;;;;;2.53;2.33;;;;;;;26.24;26.63;95587.53;5009769;28;20225;-87
2021/06/02 11:19:39;;;;;;;2.95;2.20;;;;;;;26.14;28.34;95591.03;5016182;28;20203;-88
2021/06/02 11:22:21;;;;;;;3.13;2.38;;;;;;;26.02;27.49;95587.94;5012721;28;20202;-87
2021/06/02 11:24:57;;;;;;;2.40;2.20;;;;;;;26.13;26.98;95587.63;5020259;28;20191;-88
2021/06/02 11:27:36;;;;;;;3.10;2.78;;;;;;;26.21;27.42;95594.13;5015046;28;20249;-88
2021/06/02 11:30:22;;;;;;;3.35;2.35;;;;;;;26.32;27.66;95587.78;5015635;28;20210;-88
2021/06/02 11:33:08;;;;;;;2.60;2.33;;;;;;;26.43;28.59;95586.63;5024248;28;20256;-87
2021/06/02 11:36:08;;;;;;;3.17;2.00;;;;;;;26.59;27.19;95589.91;5031924;28;20230;-88
2021/06/02 11:38:36;;;;;;;2.85;2.50;;;;;;;26.77;28.32;95591.06;5008092;28;20198;-89
2021/06/02 11:41:02;;;;;;;2.65;2.00;;;;;;;26.73;27.19;95588.22;5015938;28;20198;-88
2021/06/02 11:43:28;;;;;;;2.10;1.90;;;;;;;26.74;23.93;95589.81;5021053;28;20285;-87
2021/06/02 11:45:59;;;;;;;1.95;1.75;;;;;;;26.59;24.80;95583.84;5022145;28;20214;-86
2021/06/02 11:48:36;;;;;;;1.90;1.75;;;;;;;26.50;22.98;95583.66;5022203;28;20249;-88
2021/06/02 11:51:10;;;;;;;2.08;1.90;;;;;;;26.60;23.71;95578.28;5017337;28;20199;-88
2021/06/02 11:53:43;;;;;;;2.20;1.90;;;;;;;26.68;23.84;95587.47;5015046;28;20313;-88
2021/06/02 11:56:10;;;;;;;2.53;1.80;;;;;;;26.69;22.85;95586.41;5014504;28;20258;-87
2021/06/02 11:58:38;;;;;;;2.95;2.05;;;;;;;26.92;25.26;95587.53;5012632;28;20202;-88
2021/06/02 12:01:05;;;;;;;3.10;1.75;;;;;;;27.03;23.87;95584.53;5012713;28;20199;-88
2021/06/02 12:03:33;;;;;;;1.83;1.73;;;;;;;26.94;24.05;95582.75;5013465;28;20266;-88
2021/06/02 12:05:59;;;;;;;2.97;1.83;;;;;;;27.05;24.55;95585.03;5017718;28;20230;-88
2021/06/02 12:08:26;;;;;;;1.90;1.80;;;;;;;27.09;24.59;95582.63;5011763;28;20281;-87
2021/06/02 12:10:53;;;;;;;2.67;1.90;;;;;;;27.26;24.50;95584.81;5013056;28;20686;-87
2021/06/02 12:13:21;;;;;;;2.90;1.80;;;;;;;27.38;24.41;95585.19;5014146;28;20222;-87